Список аэропортов
Фактическая погода:

15 августа, 23:20
Температура: +15°C (+15.0*)
Ветер: перем. 1 м/с
Давление: *760 мм
Без существ. явл.
Время (МСК)Темп. СВетерВлажностьДавлениеОблачностьОсадки
21:00+16СЗ, 1 м/с97%1012 гПас прояснениями
22:00+15З, 1 м/с99%1013 гПас прояснениями
23:00+14З, 1 м/с99%1013 гПаоблачно
16 августа
00:00+14СЗ, 1 м/с99%1014 гПаоблачно
01:00+14З, 1 м/с99%1014 гПас прояснениями
02:00+14З, 1 м/с100%1014 гПас прояснениями
03:00+13З, 1 м/с100%1015 гПас прояснениями
04:00+13СЗ, 1 м/с99%1015 гПас прояснениями
05:00+13СЗ, 1 м/с100%1015 гПас прояснениями
06:00+13СЗ, 1 м/с100%1016 гПас прояснениями
07:00+13Штиль 99%1016 гПас прояснениями
08:00+15Штиль 96%1016 гПамалооблачно
09:00+18Штиль 86%1017 гПас прояснениями
10:00+20Ю, 1 м/с62%1017 гПаясно
11:00+21Ю, 2 м/с56%1017 гПаоблачно
12:00+21Ю, 2 м/с56%1017 гПаоблачно
13:00+22Ю, 3 м/с56%1018 гПаоблачно
14:00+22Ю, 3 м/с53%1018 гПаоблачно
15:00+22Ю, 4 м/с53%1018 гПаоблачно
16:00+22Ю, 4 м/с56%1018 гПас прояснениями
17:00+22Ю, 4 м/с56%1018 гПамалооблачно
18:00+21Ю, 3 м/с54%1018 гПаясно
19:00+21Ю, 3 м/с56%1018 гПаоблачно
20:00+20ЮЗ, 3 м/с61%1018 гПаоблачно
21:00+18ЮЗ, 2 м/с67%1019 гПаоблачно
22:00+17Ю, 1 м/с74%1019 гПаоблачно
23:00+16Ю, 1 м/с85%1019 гПаоблачно
17 августа
00:00+14ЮВ, 1 м/с95%1020 гПаоблачно
01:00+13ЮВ, 1 м/с98%1020 гПаоблачно
02:00+13ЮВ, 1 м/с98%1020 гПаоблачно
03:00+13ЮВ, 1 м/с98%1020 гПаоблачно
04:00+12ЮВ, 1 м/с98%1020 гПамалооблачно
05:00+12ЮВ, 1 м/с98%1020 гПас прояснениями
06:00+12ЮВ, 1 м/с99%1020 гПамалооблачно
07:00+14ЮВ, 1 м/с98%1020 гПамалооблачно
08:00+16Ю, 2 м/с92%1020 гПамалооблачно
09:00+18Ю, 3 м/с75%1020 гПамалооблачно
10:00+21Ю, 4 м/с57%1020 гПамалооблачно
11:00+22Ю, 4 м/с52%1020 гПамалооблачно
12:00+23Ю, 4 м/с49%1020 гПамалооблачно
13:00+24Ю, 4 м/с48%1020 гПаоблачно
14:00+24Ю, 4 м/с46%1020 гПамалооблачно
15:00+24Ю, 4 м/с44%1020 гПамалооблачно
16:00+24Ю, 4 м/с45%1020 гПаясно
17:00+24Ю, 4 м/с46%1019 гПаясно
18:00+23Ю, 4 м/с48%1019 гПамалооблачно
19:00+22ЮВ, 3 м/с56%1019 гПаоблачно
20:00+21ЮВ, 3 м/с63%1018 гПас прояснениями
21:00+19ЮВ, 2 м/с72%1018 гПас прояснениями